createdAt,value
2023-04-21T00:02:26.685Z,98918.83
2023-04-21T00:04:55.781Z,98918.91
2023-04-21T00:07:22.770Z,98917.15
2023-04-21T00:09:49.729Z,98916.74
2023-04-21T00:12:16.684Z,98913.61
2023-04-21T00:14:43.633Z,98911.15
2023-04-21T00:17:10.384Z,98914.16
2023-04-21T00:19:37.124Z,98913.94
2023-04-21T00:22:04.040Z,98908.20
2023-04-21T00:24:31.022Z,98903.41
2023-04-21T00:26:57.688Z,98903.52
2023-04-21T00:29:24.422Z,98906.56
2023-04-21T00:31:51.323Z,98908.83
2023-04-21T00:34:18.265Z,98904.54
2023-04-21T00:36:45.376Z,98899.55
2023-04-21T00:39:12.268Z,98898.53
2023-04-21T00:41:39.767Z,98891.50
2023-04-21T00:44:07.989Z,98891.56
2023-04-21T00:46:35.861Z,98895.63
2023-04-21T00:49:07.193Z,98893.86
2023-04-21T00:51:34.930Z,98893.89
2023-04-21T00:54:03.466Z,98898.23
2023-04-21T00:56:30.708Z,98897.02
2023-04-21T00:59:01.530Z,98898.69
2023-04-21T01:01:29.939Z,98893.80
2023-04-21T01:03:59.208Z,98895.14
2023-04-21T01:06:31.689Z,98895.83
2023-04-21T01:08:58.569Z,98894.27
2023-04-21T01:11:25.894Z,98892.70
2023-04-21T01:13:56.252Z,98889.71
2023-04-21T01:16:23.376Z,98890.44
2023-04-21T01:18:51.506Z,98888.39
2023-04-21T01:21:19.122Z,98885.70
2023-04-21T01:23:45.832Z,98885.07
2023-04-21T01:26:12.597Z,98885.48
2023-04-21T01:28:39.372Z,98884.05
2023-04-21T01:31:06.260Z,98886.89
2023-04-21T01:33:33.010Z,98883.82
2023-04-21T01:36:01.147Z,98882.63
2023-04-21T01:38:27.911Z,98880.50
2023-04-21T01:40:54.731Z,98883.85
2023-04-21T01:43:23.491Z,98880.88
2023-04-21T01:45:50.851Z,98879.98
2023-04-21T01:48:17.808Z,98875.20
2023-04-21T01:50:44.802Z,98874.77
2023-04-21T01:53:11.515Z,98879.02
2023-04-21T01:55:38.287Z,98878.80
2023-04-21T01:58:08.278Z,98881.89
2023-04-21T02:00:35.995Z,98883.67
2023-04-21T02:03:04.844Z,98884.80
2023-04-21T02:05:32.112Z,98880.88
2023-04-21T02:07:59.059Z,98883.10
2023-04-21T02:10:26.160Z,98877.83
2023-04-21T02:12:52.999Z,98879.34
2023-04-21T02:15:19.859Z,98879.04
2023-04-21T02:17:46.825Z,98877.15
2023-04-21T02:20:13.596Z,98875.29
2023-04-21T02:22:40.864Z,98871.11
2023-04-21T02:25:08.033Z,98872.08
2023-04-21T02:27:35.822Z,98875.78
2023-04-21T02:30:03.252Z,98876.44
2023-04-21T02:32:31.061Z,98880.10
2023-04-21T02:34:57.987Z,98883.27
2023-04-21T02:37:24.882Z,98889.16
2023-04-21T02:39:53.276Z,98888.38
2023-04-21T02:42:20.037Z,98889.98
2023-04-21T02:44:48.306Z,98888.80
2023-04-21T02:47:16.154Z,98889.86
2023-04-21T02:49:42.886Z,98888.23
2023-04-21T02:52:09.952Z,98886.96
2023-04-21T02:54:36.733Z,98889.89
2023-04-21T02:57:03.664Z,98889.95
2023-04-21T02:59:30.676Z,98887.05
2023-04-21T03:01:59.266Z,98885.91
2023-04-21T03:04:26.671Z,98886.41
2023-04-21T03:06:54.924Z,98882.10
2023-04-21T03:09:21.931Z,98880.51
2023-04-21T03:11:48.761Z,98878.41
2023-04-21T03:14:15.531Z,98882.30
2023-04-21T03:16:42.864Z,98883.25
2023-04-21T03:19:09.832Z,98889.33
2023-04-21T03:21:38.382Z,98886.60
2023-04-21T03:24:05.866Z,98887.73
2023-04-21T03:26:32.814Z,98883.63
2023-04-21T03:28:59.520Z,98890.58
2023-04-21T03:31:26.336Z,98889.09
2023-04-21T03:33:53.022Z,98891.23
2023-04-21T03:36:20.176Z,98896.48
2023-04-21T03:38:46.928Z,98886.85
2023-04-21T03:41:13.651Z,98889.41
2023-04-21T03:43:40.441Z,98884.38
2023-04-21T03:46:07.208Z,98884.87
2023-04-21T03:48:33.998Z,98886.00
2023-04-21T03:51:01.119Z,98885.08
2023-04-21T03:53:28.385Z,98881.55
2023-04-21T03:55:55.259Z,98885.98
2023-04-21T03:58:22.578Z,98883.34
2023-04-21T04:00:49.332Z,98889.02
2023-04-21T04:03:16.250Z,98887.02
2023-04-21T04:05:43.312Z,98891.06
2023-04-21T04:08:10.581Z,98888.98
2023-04-21T04:10:37.348Z,98895.43
2023-04-21T04:13:04.331Z,98901.17
2023-04-21T04:15:31.061Z,98904.95
2023-04-21T04:17:57.923Z,98906.66
2023-04-21T04:20:25.484Z,98907.59
2023-04-21T04:22:52.536Z,98903.67
2023-04-21T04:25:19.296Z,98901.73
2023-04-21T04:27:46.123Z,98909.39
2023-04-21T04:30:13.457Z,98902.81
2023-04-21T04:32:40.882Z,98906.40
2023-04-21T04:35:08.524Z,98904.66
2023-04-21T04:37:36.466Z,98900.33
2023-04-21T04:40:09.765Z,98898.56
2023-04-21T04:42:39.005Z,98902.56
2023-04-21T04:45:07.858Z,98900.64
2023-04-21T04:47:35.135Z,98905.73
2023-04-21T04:50:02.038Z,98901.11
2023-04-21T04:52:29.261Z,98907.52
2023-04-21T04:54:56.430Z,98903.98
2023-04-21T04:57:23.223Z,98910.59
2023-04-21T04:59:57.169Z,98911.02
2023-04-21T05:02:24.785Z,98915.89
2023-04-21T05:04:52.009Z,98917.56
2023-04-21T05:07:19.067Z,98916.16
2023-04-21T05:09:46.178Z,98915.24
2023-04-21T05:12:13.995Z,98919.54
2023-04-21T05:14:40.798Z,98921.63
2023-04-21T05:17:07.576Z,98922.05
2023-04-21T05:19:37.517Z,98918.09
2023-04-21T05:22:06.035Z,98923.02
2023-04-21T05:24:33.716Z,98921.19
2023-04-21T05:27:02.397Z,98912.84
2023-04-21T05:29:30.467Z,98916.31
2023-04-21T05:31:57.162Z,98911.36
2023-04-21T05:34:23.920Z,98902.80
2023-04-21T05:36:51.657Z,98903.24
2023-04-21T05:39:18.395Z,98906.40
2023-04-21T05:41:45.112Z,98905.36
2023-04-21T05:44:11.806Z,98908.80
2023-04-21T05:46:38.625Z,98916.50
2023-04-21T05:49:05.567Z,98916.53
2023-04-21T05:51:32.280Z,98920.58
2023-04-21T05:53:59.070Z,98925.86
2023-04-21T05:56:25.797Z,98924.48
2023-04-21T05:58:52.497Z,98928.20
2023-04-21T06:01:19.420Z,98938.36
2023-04-21T06:03:49.471Z,98931.75
2023-04-21T06:06:16.981Z,98934.46
2023-04-21T06:08:43.806Z,98933.27
2023-04-21T06:11:10.559Z,98932.47
2023-04-21T06:13:38.861Z,98934.17
2023-04-21T06:16:06.656Z,98930.16
2023-04-21T06:18:33.454Z,98926.89
2023-04-21T06:21:00.204Z,98931.88
2023-04-21T06:23:27.508Z,98931.20
2023-04-21T06:26:01.142Z,98934.45
2023-04-21T06:28:27.922Z,98935.23
2023-04-21T06:30:54.665Z,98937.25
2023-04-21T06:33:21.369Z,98934.45
2023-04-21T06:35:48.047Z,98933.81
2023-04-21T06:38:15.211Z,98934.55
2023-04-21T06:40:41.972Z,98930.91
2023-04-21T06:43:08.800Z,98932.59
2023-04-21T06:45:35.664Z,98933.98
2023-04-21T06:48:02.536Z,98933.28
2023-04-21T06:50:29.955Z,98928.61
2023-04-21T06:52:56.774Z,98924.87
2023-04-21T06:55:23.747Z,98933.61
2023-04-21T06:57:50.675Z,98926.22
2023-04-21T07:00:17.658Z,98927.11
2023-04-21T07:02:47.177Z,98931.02
2023-04-21T07:05:14.070Z,98926.46
2023-04-21T07:07:41.239Z,98927.98
2023-04-21T07:10:08.728Z,98925.20
2023-04-21T07:12:35.506Z,98926.12
2023-04-21T07:15:02.494Z,98922.38
2023-04-21T07:17:29.554Z,98919.56
2023-04-21T07:19:56.781Z,98925.68
2023-04-21T07:22:25.104Z,98926.14
2023-04-21T07:24:51.781Z,98924.87
2023-04-21T07:27:18.829Z,98926.52
2023-04-21T07:29:45.566Z,98922.16
2023-04-21T07:32:12.255Z,98927.55
2023-04-21T07:34:40.795Z,98920.13
2023-04-21T07:37:07.420Z,98922.98
2023-04-21T07:39:34.284Z,98921.57
2023-04-21T07:42:01.003Z,98925.21
2023-04-21T07:44:28.849Z,98920.58
2023-04-21T07:46:55.577Z,98919.57
2023-04-21T07:49:23.231Z,98912.40
2023-04-21T07:51:50.396Z,98918.02
2023-04-21T07:54:17.159Z,98914.82
2023-04-21T07:56:44.069Z,98920.54
2023-04-21T07:59:10.872Z,98926.73
2023-04-21T08:01:37.781Z,98925.47
2023-04-21T08:04:06.120Z,98926.68
2023-04-21T08:06:33.354Z,98926.98
2023-04-21T08:09:00.679Z,98926.19
2023-04-21T08:11:28.143Z,98925.28
2023-04-21T08:13:55.316Z,98923.91
2023-04-21T08:16:22.322Z,98919.74
2023-04-21T08:18:49.242Z,98924.75
2023-04-21T08:21:16.057Z,98925.06
2023-04-21T08:23:42.813Z,98929.15
2023-04-21T08:26:10.268Z,98931.94
2023-04-21T08:28:37.240Z,98932.88
2023-04-21T08:31:04.831Z,98930.30
2023-04-21T08:33:32.064Z,98931.46
2023-04-21T08:36:05.432Z,98933.52
2023-04-21T08:38:37.407Z,98932.92
2023-04-21T08:41:04.466Z,98928.94
2023-04-21T08:43:31.270Z,98933.89
2023-04-21T08:45:58.644Z,98932.60
2023-04-21T08:48:25.608Z,98933.26
2023-04-21T08:50:53.280Z,98927.73
2023-04-21T08:53:20.281Z,98927.77
2023-04-21T08:56:03.120Z,98926.97
2023-04-21T08:58:36.941Z,98928.52
2023-04-21T09:01:03.801Z,98922.54
2023-04-21T09:06:05.506Z,98919.70
2023-04-21T09:08:37.493Z,98925.41
2023-04-21T09:11:04.288Z,98921.17
2023-04-21T09:13:35.206Z,98919.57
2023-04-21T09:16:22.571Z,98914.30
2023-04-21T09:18:53.039Z,98909.27
2023-04-21T09:21:20.569Z,98907.81
2023-04-21T09:23:49.975Z,98915.33
2023-04-21T09:26:18.255Z,98906.07
2023-04-21T09:28:46.592Z,98914.22
2023-04-21T09:31:17.444Z,98907.84
2023-04-21T09:34:00.326Z,98913.18
2023-04-21T09:36:29.190Z,98910.38
2023-04-21T09:39:20.734Z,98907.02
2023-04-21T09:41:44.384Z,98909.94
2023-04-21T09:44:11.236Z,98908.00
2023-04-21T09:46:38.696Z,98911.25
2023-04-21T09:49:06.046Z,98914.66
2023-04-21T09:51:56.372Z,98919.63
2023-04-21T09:56:53.106Z,98919.64
2023-04-21T09:59:27.112Z,98916.99
2023-04-21T10:01:54.090Z,98913.36
2023-04-21T10:04:23.253Z,98909.02
2023-04-21T10:06:51.048Z,98905.11
2023-04-21T10:09:19.778Z,98903.90
2023-04-21T10:11:46.800Z,98901.65
2023-04-21T10:14:13.571Z,98901.80
2023-04-21T10:16:41.860Z,98904.49
2023-04-21T10:19:25.052Z,98902.46
2023-04-21T10:21:52.644Z,98896.23
2023-04-21T10:24:19.686Z,98898.83
2023-04-21T10:26:47.041Z,98897.40
2023-04-21T10:29:15.698Z,98894.16
2023-04-21T10:31:52.664Z,98893.18
2023-04-21T10:34:29.776Z,98892.91
2023-04-21T10:36:59.080Z,98888.73
2023-04-21T10:39:36.279Z,98883.23
2023-04-21T10:42:12.530Z,98889.67
2023-04-21T10:44:56.297Z,98886.23
2023-04-21T10:47:30.917Z,98889.55
2023-04-21T10:49:58.036Z,98890.41
2023-04-21T10:52:33.935Z,98895.42
2023-04-21T10:55:00.660Z,98881.77
2023-04-21T10:57:31.020Z,98881.52
2023-04-21T10:59:58.165Z,98889.30
2023-04-21T11:02:25.339Z,98885.67
2023-04-21T11:04:53.409Z,98886.08
2023-04-21T11:07:22.405Z,98884.77
2023-04-21T11:10:14.432Z,98887.55
2023-04-21T11:12:44.846Z,98892.46
2023-04-21T11:15:15.303Z,98887.10
2023-04-21T11:17:46.510Z,98888.01
2023-04-21T11:20:13.641Z,98889.48
2023-04-21T11:22:40.734Z,98884.77
2023-04-21T11:25:16.509Z,98886.47
2023-04-21T11:27:52.919Z,98891.27
2023-04-21T11:30:20.162Z,98893.55
2023-04-21T11:32:55.801Z,98887.69
2023-04-21T11:35:22.595Z,98884.40
2023-04-21T11:37:51.264Z,98888.55
2023-04-21T11:40:18.625Z,98883.14
2023-04-21T11:42:45.627Z,98884.71
2023-04-21T11:45:21.827Z,98883.29
2023-04-21T11:47:49.729Z,98880.54
2023-04-21T11:50:49.125Z,98886.66
2023-04-21T11:53:16.067Z,98883.56
2023-04-21T11:55:43.894Z,98879.31
2023-04-21T11:58:11.661Z,98881.46
2023-04-21T12:00:38.637Z,98871.15
2023-04-21T12:03:09.280Z,98879.20
2023-04-21T12:05:36.433Z,98872.56
2023-04-21T12:08:06.945Z,98871.97
2023-04-21T12:10:33.898Z,98863.80
2023-04-21T12:13:00.761Z,98869.23
2023-04-21T12:15:27.496Z,98865.50
2023-04-21T12:17:54.996Z,98862.67
2023-04-21T12:20:23.306Z,98858.39
2023-04-21T12:22:50.079Z,98860.61
2023-04-21T12:25:17.704Z,98857.55
2023-04-21T12:27:49.307Z,98863.30
2023-04-21T12:30:16.610Z,98860.19
2023-04-21T12:32:44.300Z,98853.34
2023-04-21T12:35:11.227Z,98859.13
2023-04-21T12:37:38.199Z,98862.91
2023-04-21T12:40:07.412Z,98861.68
2023-04-21T12:42:37.413Z,98864.61
2023-04-21T12:45:05.831Z,98857.10
2023-04-21T12:47:34.386Z,98856.45
2023-04-21T12:50:01.282Z,98853.16
2023-04-21T12:52:28.581Z,98859.30
2023-04-21T12:54:55.285Z,98855.35
2023-04-21T12:57:22.090Z,98856.21
2023-04-21T12:59:48.842Z,98856.48
2023-04-21T13:02:16.223Z,98856.98
2023-04-21T13:04:43.201Z,98862.13
2023-04-21T13:07:10.504Z,98858.54
2023-04-21T13:09:37.836Z,98856.59
2023-04-21T13:12:04.576Z,98856.94
2023-04-21T13:14:32.455Z,98857.70
2023-04-21T13:16:59.292Z,98851.67
2023-04-21T13:19:26.060Z,98851.97
2023-04-21T13:21:54.210Z,98852.96
2023-04-21T13:24:21.656Z,98848.36
2023-04-21T13:26:48.421Z,98849.04
2023-04-21T13:29:15.658Z,98845.73
2023-04-21T13:31:43.954Z,98847.88
2023-04-21T13:34:14.988Z,98845.77
2023-04-21T13:36:41.862Z,98849.19
2023-04-21T13:39:36.667Z,98848.88
2023-04-21T13:42:04.541Z,98842.57
2023-04-21T13:44:31.934Z,98843.54
2023-04-21T13:46:59.278Z,98837.83
2023-04-21T13:49:26.312Z,98835.82
2023-04-21T13:51:55.263Z,98841.52
2023-04-21T13:54:22.057Z,98842.23
2023-04-21T13:56:50.661Z,98842.40
2023-04-21T13:59:17.476Z,98838.73
2023-04-21T14:01:44.724Z,98837.86
2023-04-21T14:04:11.695Z,98837.89
2023-04-21T14:06:38.787Z,98838.86
2023-04-21T14:09:05.816Z,98840.73
2023-04-21T14:11:32.636Z,98838.67
2023-04-21T14:14:09.145Z,98837.08
2023-04-21T14:16:37.794Z,98835.49
2023-04-21T14:19:04.756Z,98833.69
2023-04-21T14:21:32.075Z,98831.80
2023-04-21T14:23:59.058Z,98834.77
2023-04-21T14:26:26.066Z,98833.00
2023-04-21T14:28:52.859Z,98834.05
2023-04-21T14:31:21.834Z,98829.02
2023-04-21T14:33:49.346Z,98828.05
2023-04-21T14:36:16.097Z,98828.83
2023-04-21T14:38:42.852Z,98825.30
2023-04-21T14:41:09.938Z,98822.18
2023-04-21T14:43:37.284Z,98819.95
2023-04-21T14:46:04.203Z,98822.29
2023-04-21T14:48:31.470Z,98823.20
2023-04-21T14:50:58.563Z,98819.55
2023-04-21T14:53:25.388Z,98822.24
2023-04-21T14:55:53.644Z,98821.06
2023-04-21T14:58:21.570Z,98819.34
2023-04-21T15:00:48.390Z,98817.94
2023-04-21T15:03:15.250Z,98818.96
2023-04-21T15:05:42.395Z,98813.89
2023-04-21T15:08:11.180Z,98816.00
2023-04-21T15:10:38.335Z,98813.13
2023-04-21T15:13:05.122Z,98814.59
2023-04-21T15:15:32.074Z,98816.11
2023-04-21T15:17:58.958Z,98812.77
2023-04-21T15:20:40.730Z,98815.56
2023-04-21T15:23:13.517Z,98814.73
2023-04-21T15:25:40.846Z,98814.57
2023-04-21T15:28:10.045Z,98812.97
2023-04-21T15:30:36.989Z,98820.38
2023-04-21T15:33:04.358Z,98825.69
2023-04-21T15:35:32.177Z,98818.36
2023-04-21T15:37:58.973Z,98835.98
2023-04-21T15:40:26.475Z,98842.21
2023-04-21T15:42:54.456Z,98845.23
2023-04-21T15:45:21.183Z,98852.71
2023-04-21T15:47:48.457Z,98843.25
2023-04-21T15:50:15.769Z,98840.81
2023-04-21T15:52:42.842Z,98839.85
2023-04-21T15:55:13.859Z,98827.92
2023-04-21T15:57:41.967Z,98823.75
2023-04-21T16:00:12.609Z,98823.52
2023-04-21T16:02:41.522Z,98824.34
2023-04-21T16:05:10.206Z,98824.61
2023-04-21T16:07:38.003Z,98820.10
2023-04-21T16:10:06.056Z,98818.85
2023-04-21T16:12:33.069Z,98820.70
2023-04-21T16:15:09.341Z,98819.27
2023-04-21T16:17:48.952Z,98819.15
2023-04-21T16:20:16.811Z,98821.80
2023-04-21T16:22:43.718Z,98818.27
2023-04-21T16:25:15.805Z,98818.64
2023-04-21T16:27:42.636Z,98818.91
2023-04-21T16:30:09.839Z,98824.69
2023-04-21T16:32:37.556Z,98833.92
2023-04-21T16:35:07.550Z,98836.32
2023-04-21T16:37:36.529Z,98829.71
2023-04-21T16:40:05.693Z,98830.41
2023-04-21T16:42:33.171Z,98816.38
2023-04-21T16:45:02.842Z,98824.92
2023-04-21T16:47:38.666Z,98826.91
2023-04-21T16:50:07.685Z,98825.33
2023-04-21T16:52:34.880Z,98819.55
2023-04-21T16:55:01.658Z,98820.67
2023-04-21T16:57:30.539Z,98818.75
2023-04-21T17:00:00.188Z,98819.08
2023-04-21T17:02:27.460Z,98820.02
2023-04-21T17:04:55.074Z,98825.02
2023-04-21T17:07:21.816Z,98827.69
2023-04-21T17:09:49.974Z,98833.13
2023-04-21T17:12:17.348Z,98829.86
2023-04-21T17:14:44.207Z,98833.63
2023-04-21T17:17:10.948Z,98833.20
2023-04-21T17:19:37.830Z,98836.26
2023-04-21T17:22:04.766Z,98846.86
2023-04-21T17:24:44.924Z,98856.06
2023-04-21T17:27:18.942Z,98861.91
2023-04-21T17:29:46.212Z,98864.07
2023-04-21T17:32:13.706Z,98861.86
2023-04-21T17:34:40.738Z,98857.05
2023-04-21T17:37:07.757Z,98861.30
2023-04-21T17:39:34.546Z,98866.75
2023-04-21T17:42:01.949Z,98865.81
2023-04-21T17:44:28.826Z,98867.04
2023-04-21T17:46:56.772Z,98859.98
2023-04-21T17:49:24.717Z,98860.31
2023-04-21T17:51:51.541Z,98863.17
2023-04-21T17:54:18.339Z,98865.04
2023-04-21T17:56:45.590Z,98862.31
2023-04-21T17:59:12.370Z,98860.23
2023-04-21T18:01:39.174Z,98861.14
2023-04-21T18:04:06.442Z,98861.42
2023-04-21T18:06:33.783Z,98860.14
2023-04-21T18:09:00.824Z,98864.02
2023-04-21T18:11:27.645Z,98865.61
2023-04-21T18:13:54.890Z,98861.31
2023-04-21T18:16:21.749Z,98859.52
2023-04-21T18:18:49.402Z,98858.38
2023-04-21T18:21:16.161Z,98853.88
2023-04-21T18:23:43.160Z,98853.23
2023-04-21T18:26:10.421Z,98854.80
2023-04-21T18:28:37.485Z,98856.00
2023-04-21T18:31:04.370Z,98853.11
2023-04-21T18:33:31.158Z,98852.17
2023-04-21T18:35:57.917Z,98853.52
2023-04-21T18:38:24.876Z,98852.33
2023-04-21T18:40:51.685Z,98849.98
2023-04-21T18:43:18.614Z,98846.92
2023-04-21T18:45:45.445Z,98849.10
2023-04-21T18:48:12.251Z,98842.73
2023-04-21T18:50:40.414Z,98844.95
2023-04-21T18:53:07.622Z,98845.66
2023-04-21T18:55:35.497Z,98842.95
2023-04-21T18:58:02.454Z,98838.52
2023-04-21T19:00:31.132Z,98837.63
2023-04-21T19:03:01.464Z,98837.65
2023-04-21T19:05:31.259Z,98833.76
2023-04-21T19:07:58.638Z,98830.40
2023-04-21T19:10:26.389Z,98830.61
2023-04-21T19:12:53.335Z,98826.58
2023-04-21T19:15:21.369Z,98826.02
2023-04-21T19:17:48.180Z,98824.81
2023-04-21T19:20:15.104Z,98825.33
2023-04-21T19:22:41.896Z,98822.59
2023-04-21T19:25:10.343Z,98827.80
2023-04-21T19:27:37.553Z,98827.63
2023-04-21T19:30:05.238Z,98830.33
2023-04-21T19:32:32.579Z,98825.11
2023-04-21T19:34:59.670Z,98821.58
2023-04-21T19:37:27.507Z,98823.58
2023-04-21T19:39:54.334Z,98824.45
2023-04-21T19:42:21.107Z,98830.08
2023-04-21T19:44:48.923Z,98830.77
2023-04-21T19:47:16.788Z,98827.77
2023-04-21T19:49:43.601Z,98825.13
2023-04-21T19:52:10.357Z,98824.29
2023-04-21T19:54:37.902Z,98823.20
2023-04-21T19:57:05.038Z,98823.55
2023-04-21T19:59:36.446Z,98823.10
2023-04-21T20:02:03.894Z,98823.73
2023-04-21T20:04:31.197Z,98827.41
2023-04-21T20:06:58.192Z,98828.10
2023-04-21T20:09:24.958Z,98824.49
2023-04-21T20:11:51.691Z,98829.58
2023-04-21T20:14:19.727Z,98832.81
2023-04-21T20:16:47.133Z,98830.97
2023-04-21T20:19:16.984Z,98828.77
2023-04-21T20:21:43.720Z,98827.79
2023-04-21T20:24:10.452Z,98826.48
2023-04-21T20:26:37.626Z,98832.71
2023-04-21T20:29:04.442Z,98830.13
2023-04-21T20:31:32.717Z,98830.94
2023-04-21T20:33:59.563Z,98828.85
2023-04-21T20:36:27.049Z,98829.73
2023-04-21T20:38:56.450Z,98820.83
2023-04-21T20:41:23.593Z,98820.02
2023-04-21T20:43:50.380Z,98819.39
2023-04-21T20:46:17.995Z,98815.17
2023-04-21T20:48:46.326Z,98813.94
2023-04-21T20:51:13.124Z,98809.11
2023-04-21T20:53:40.550Z,98813.45
2023-04-21T20:56:07.303Z,98812.94
2023-04-21T20:58:35.475Z,98806.92
2023-04-21T21:01:02.221Z,98807.66
2023-04-21T21:03:30.093Z,98805.41
2023-04-21T21:05:57.057Z,98807.61
2023-04-21T21:08:24.112Z,98811.21
2023-04-21T21:10:51.435Z,98812.00
2023-04-21T21:13:18.236Z,98811.67
2023-04-21T21:15:45.542Z,98811.52
2023-04-21T21:18:12.837Z,98810.39
2023-04-21T21:20:39.868Z,98811.25
2023-04-21T21:23:06.978Z,98809.80
2023-04-21T21:25:33.806Z,98811.98
2023-04-21T21:28:00.736Z,98810.42
2023-04-21T21:30:27.514Z,98809.94
2023-04-21T21:32:55.381Z,98810.12
2023-04-21T21:35:22.500Z,98807.66
2023-04-21T21:37:49.249Z,98809.54
2023-04-21T21:40:16.311Z,98808.23
2023-04-21T21:42:43.116Z,98807.19
2023-04-21T21:45:10.528Z,98807.59
2023-04-21T21:47:40.262Z,98800.91
2023-04-21T21:50:10.659Z,98800.96
2023-04-21T21:52:38.488Z,98795.29
2023-04-21T21:55:06.068Z,98799.31
2023-04-21T21:57:33.405Z,98798.39
2023-04-21T22:00:01.305Z,98799.05
2023-04-21T22:02:28.657Z,98797.55
2023-04-21T22:04:55.821Z,98796.13
2023-04-21T22:07:24.414Z,98798.39
2023-04-21T22:09:52.036Z,98797.09
2023-04-21T22:12:19.370Z,98795.56
2023-04-21T22:14:46.540Z,98797.45
2023-04-21T22:17:13.917Z,98794.92
2023-04-21T22:19:41.270Z,98795.47
2023-04-21T22:22:08.149Z,98796.70
2023-04-21T22:24:36.182Z,98798.56
2023-04-21T22:27:03.017Z,98799.92
2023-04-21T22:29:30.544Z,98801.11
2023-04-21T22:31:57.657Z,98799.83
2023-04-21T22:34:24.743Z,98801.13
2023-04-21T22:36:52.838Z,98800.33
2023-04-21T22:39:20.238Z,98798.59
2023-04-21T22:41:46.945Z,98797.82
2023-04-21T22:44:13.936Z,98800.17
2023-04-21T22:46:40.975Z,98798.86
2023-04-21T22:49:08.673Z,98798.56
2023-04-21T22:51:36.477Z,98797.28
2023-04-21T22:54:03.313Z,98797.39
2023-04-21T22:56:30.950Z,98798.63
2023-04-21T22:58:57.986Z,98799.93
2023-04-21T23:01:24.876Z,98800.19
2023-04-21T23:03:52.770Z,98799.90
2023-04-21T23:06:19.829Z,98796.06
2023-04-21T23:08:46.606Z,98797.23
2023-04-21T23:11:13.719Z,98795.55
2023-04-21T23:13:40.504Z,98794.79
2023-04-21T23:16:07.255Z,98791.78
2023-04-21T23:18:35.303Z,98791.42
2023-04-21T23:21:02.036Z,98795.25
2023-04-21T23:23:28.844Z,98790.71
2023-04-21T23:25:55.631Z,98787.70
2023-04-21T23:28:23.792Z,98787.65
2023-04-21T23:30:50.768Z,98784.41
2023-04-21T23:33:17.577Z,98785.02
2023-04-21T23:35:44.365Z,98783.78
2023-04-21T23:38:11.516Z,98786.42
2023-04-21T23:40:38.237Z,98787.77
2023-04-21T23:43:05.475Z,98790.92
2023-04-21T23:45:32.222Z,98787.17
2023-04-21T23:47:59.103Z,98790.02
2023-04-21T23:50:26.092Z,98791.05
2023-04-21T23:52:52.962Z,98785.39
2023-04-21T23:55:19.858Z,98790.09
2023-04-21T23:57:46.923Z,98789.36
